sensor_id;sensor_type;location;lat;lon;timestamp;pressure;altitude;pressure_sealevel;temperature;humidity
67377;BME280;54261;46.086;6.588;2022-12-07T00:02:09;92364.19;;;2.82;43.45
67377;BME280;54261;46.086;6.588;2022-12-07T00:07:11;92348.13;;;0.33;46.86
67377;BME280;54261;46.086;6.588;2022-12-07T00:12:13;92337.34;;;-1.06;50.27
67377;BME280;54261;46.086;6.588;2022-12-07T00:17:14;92328.78;;;-0.26;49.87
67377;BME280;54261;46.086;6.588;2022-12-07T00:22:16;92336.13;;;0.58;47.05
67377;BME280;54261;46.086;6.588;2022-12-07T00:27:18;92364.19;;;-1.09;52.57
67377;BME280;54261;46.086;6.588;2022-12-07T00:32:20;92330.44;;;1.08;47.77
67377;BME280;54261;46.086;6.588;2022-12-07T00:37:22;92328.38;;;1.83;46.98
67377;BME280;54261;46.086;6.588;2022-12-07T00:42:24;92346.03;;;2.44;44.56
67377;BME280;54261;46.086;6.588;2022-12-07T00:47:26;92343.59;;;2.58;43.93
67377;BME280;54261;46.086;6.588;2022-12-07T00:52:28;92328.88;;;1.02;45.13
67377;BME280;54261;46.086;6.588;2022-12-07T00:57:30;92314.34;;;1.10;46.01
67377;BME280;54261;46.086;6.588;2022-12-07T01:02:32;92341.38;;;1.74;45.08
67377;BME280;54261;46.086;6.588;2022-12-07T01:07:34;92335.69;;;2.38;45.07
67377;BME280;54261;46.086;6.588;2022-12-07T01:12:36;92313.44;;;2.49;43.69
67377;BME280;54261;46.086;6.588;2022-12-07T01:17:38;92324.31;;;0.87;44.15
67377;BME280;54261;46.086;6.588;2022-12-07T01:22:41;92315.91;;;1.99;44.78
67377;BME280;54261;46.086;6.588;2022-12-07T01:27:44;92344.75;;;2.16;44.32
67377;BME280;54261;46.086;6.588;2022-12-07T01:32:45;92312.16;;;2.31;42.66
67377;BME280;54261;46.086;6.588;2022-12-07T01:37:48;92318.59;;;2.80;42.58
67377;BME280;54261;46.086;6.588;2022-12-07T01:42:50;92327.88;;;1.81;42.78
67377;BME280;54261;46.086;6.588;2022-12-07T01:47:56;92330.91;;;2.55;42.55
67377;BME280;54261;46.086;6.588;2022-12-07T01:53:01;92348.44;;;1.11;46.15
67377;BME280;54261;46.086;6.588;2022-12-07T01:58:04;92325.44;;;-1.09;50.85
67377;BME280;54261;46.086;6.588;2022-12-07T02:03:11;92349.28;;;1.32;46.13
67377;BME280;54261;46.086;6.588;2022-12-07T02:08:17;92318.06;;;1.40;44.35
67377;BME280;54261;46.086;6.588;2022-12-07T02:13:25;92351.09;;;2.15;44.68
67377;BME280;54261;46.086;6.588;2022-12-07T02:18:55;92352.88;;;-0.49;48.10
67377;BME280;54261;46.086;6.588;2022-12-07T02:29:28;92356.94;;;2.01;44.24
67377;BME280;54261;46.086;6.588;2022-12-07T02:34:44;92330.25;;;1.67;45.74
67377;BME280;54261;46.086;6.588;2022-12-07T02:39:57;92338.69;;;1.32;45.60
67377;BME280;54261;46.086;6.588;2022-12-07T02:45:02;92358.03;;;1.95;44.65
67377;BME280;54261;46.086;6.588;2022-12-07T02:50:06;92319.91;;;1.86;44.25
67377;BME280;54261;46.086;6.588;2022-12-07T02:55:09;92351.53;;;2.58;43.60
67377;BME280;54261;46.086;6.588;2022-12-07T03:00:15;92327.31;;;1.32;43.54
67377;BME280;54261;46.086;6.588;2022-12-07T03:05:38;92317.53;;;1.64;44.58
67377;BME280;54261;46.086;6.588;2022-12-07T03:11:08;92332.59;;;1.32;43.60
67377;BME280;54261;46.086;6.588;2022-12-07T03:16:15;92337.53;;;0.82;44.78
67377;BME280;54261;46.086;6.588;2022-12-07T03:21:23;92326.28;;;1.59;44.26
67377;BME280;54261;46.086;6.588;2022-12-07T03:26:32;92304.56;;;1.88;43.66
67377;BME280;54261;46.086;6.588;2022-12-07T03:31:41;92332.78;;;2.55;42.99
67377;BME280;54261;46.086;6.588;2022-12-07T03:37:01;92315.13;;;1.21;44.41
67377;BME280;54261;46.086;6.588;2022-12-07T03:42:07;92321.47;;;2.08;43.31
67377;BME280;54261;46.086;6.588;2022-12-07T03:57:25;92320.59;;;-1.67;50.68
67377;BME280;54261;46.086;6.588;2022-12-07T04:02:28;92315.50;;;-2.13;51.36
67377;BME280;54261;46.086;6.588;2022-12-07T04:07:31;92286.03;;;-2.88;54.24
67377;BME280;54261;46.086;6.588;2022-12-07T04:12:33;92304.41;;;-1.81;51.39
67377;BME280;54261;46.086;6.588;2022-12-07T04:17:35;92302.38;;;-0.69;50.45
67377;BME280;54261;46.086;6.588;2022-12-07T04:22:37;92303.25;;;0.39;48.57
67377;BME280;54261;46.086;6.588;2022-12-07T04:27:39;92301.63;;;-0.21;47.49
67377;BME280;54261;46.086;6.588;2022-12-07T04:32:41;92310.09;;;0.29;46.55
67377;BME280;54261;46.086;6.588;2022-12-07T04:37:43;92309.03;;;1.15;45.74
67377;BME280;54261;46.086;6.588;2022-12-07T04:42:45;92304.28;;;1.12;45.81
67377;BME280;54261;46.086;6.588;2022-12-07T04:47:47;92240.44;;;0.46;43.87
67377;BME280;54261;46.086;6.588;2022-12-07T04:52:49;92300.31;;;0.99;45.44
67377;BME280;54261;46.086;6.588;2022-12-07T04:57:52;92305.38;;;1.68;44.55
67377;BME280;54261;46.086;6.588;2022-12-07T05:02:54;92285.47;;;2.01;42.62
67377;BME280;54261;46.086;6.588;2022-12-07T05:07:56;92299.69;;;2.37;43.09
67377;BME280;54261;46.086;6.588;2022-12-07T05:12:58;92268.41;;;2.44;42.44
67377;BME280;54261;46.086;6.588;2022-12-07T05:18:00;92273.00;;;2.18;42.40
67377;BME280;54261;46.086;6.588;2022-12-07T05:23:02;92279.53;;;2.51;41.47
67377;BME280;54261;46.086;6.588;2022-12-07T05:28:05;92281.31;;;2.61;42.05
67377;BME280;54261;46.086;6.588;2022-12-07T05:33:07;92272.28;;;2.67;41.30
67377;BME280;54261;46.086;6.588;2022-12-07T05:38:09;92272.09;;;2.53;41.32
67377;BME280;54261;46.086;6.588;2022-12-07T05:43:11;92209.38;;;2.33;40.69
67377;BME280;54261;46.086;6.588;2022-12-07T05:48:13;92268.72;;;2.93;40.86
67377;BME280;54261;46.086;6.588;2022-12-07T05:53:15;92274.44;;;2.60;40.17
67377;BME280;54261;46.086;6.588;2022-12-07T05:58:23;92279.38;;;2.06;41.52
67377;BME280;54261;46.086;6.588;2022-12-07T06:03:44;92221.75;;;1.56;41.44
67377;BME280;54261;46.086;6.588;2022-12-07T06:08:47;92256.16;;;1.51;41.61
67377;BME280;54261;46.086;6.588;2022-12-07T06:13:49;92249.56;;;1.17;41.82
67377;BME280;54261;46.086;6.588;2022-12-07T06:18:51;92250.63;;;1.27;43.82
67377;BME280;54261;46.086;6.588;2022-12-07T06:23:53;92266.16;;;1.85;42.56
67377;BME280;54261;46.086;6.588;2022-12-07T06:28:55;92232.91;;;1.48;42.37
67377;BME280;54261;46.086;6.588;2022-12-07T06:33:59;92256.44;;;1.44;42.18
67377;BME280;54261;46.086;6.588;2022-12-07T06:39:02;92264.00;;;0.63;43.22
67377;BME280;54261;46.086;6.588;2022-12-07T06:44:05;92263.72;;;0.54;42.86
67377;BME280;54261;46.086;6.588;2022-12-07T06:49:09;92260.63;;;1.66;42.70
67377;BME280;54261;46.086;6.588;2022-12-07T06:54:13;92270.44;;;1.66;41.56
67377;BME280;54261;46.086;6.588;2022-12-07T06:59:15;92250.06;;;1.82;41.30
67377;BME280;54261;46.086;6.588;2022-12-07T07:04:17;92218.09;;;1.26;41.50
67377;BME280;54261;46.086;6.588;2022-12-07T07:09:19;92285.72;;;2.10;41.09
67377;BME280;54261;46.086;6.588;2022-12-07T07:14:21;92273.88;;;1.61;41.83
67377;BME280;54261;46.086;6.588;2022-12-07T07:19:23;92245.97;;;0.44;43.20
67377;BME280;54261;46.086;6.588;2022-12-07T07:24:25;92293.81;;;-0.05;43.47
67377;BME280;54261;46.086;6.588;2022-12-07T07:29:27;92267.19;;;0.60;43.40
67377;BME280;54261;46.086;6.588;2022-12-07T07:34:29;92277.31;;;1.67;42.70
67377;BME280;54261;46.086;6.588;2022-12-07T07:39:31;92264.66;;;1.32;41.67
67377;BME280;54261;46.086;6.588;2022-12-07T07:44:34;92298.09;;;2.30;41.66
67377;BME280;54261;46.086;6.588;2022-12-07T07:49:36;92304.97;;;0.60;43.62
67377;BME280;54261;46.086;6.588;2022-12-07T07:54:45;92302.22;;;1.35;42.92
67377;BME280;54261;46.086;6.588;2022-12-07T07:59:47;92289.16;;;0.81;43.60
67377;BME280;54261;46.086;6.588;2022-12-07T08:04:49;92291.91;;;1.54;42.72
67377;BME280;54261;46.086;6.588;2022-12-07T08:09:51;92288.19;;;1.44;44.14
67377;BME280;54261;46.086;6.588;2022-12-07T08:14:54;92264.34;;;1.60;42.76
67377;BME280;54261;46.086;6.588;2022-12-07T08:19:56;92254.06;;;1.53;42.22
67377;BME280;54261;46.086;6.588;2022-12-07T08:24:58;92301.00;;;0.04;45.76
67377;BME280;54261;46.086;6.588;2022-12-07T08:30:00;92259.84;;;0.03;44.44
67377;BME280;54261;46.086;6.588;2022-12-07T08:35:03;92248.28;;;0.20;43.79
67377;BME280;54261;46.086;6.588;2022-12-07T08:40:06;92311.13;;;0.23;45.20
67377;BME280;54261;46.086;6.588;2022-12-07T08:45:11;92309.84;;;0.31;44.98
67377;BME280;54261;46.086;6.588;2022-12-07T08:50:14;92298.22;;;1.32;44.10
67377;BME280;54261;46.086;6.588;2022-12-07T08:55:16;92271.25;;;1.40;42.65
67377;BME280;54261;46.086;6.588;2022-12-07T09:00:19;92311.97;;;1.34;43.42
67377;BME280;54261;46.086;6.588;2022-12-07T09:05:21;92318.44;;;0.11;44.28
67377;BME280;54261;46.086;6.588;2022-12-07T09:10:23;92310.53;;;-0.32;46.88
67377;BME280;54261;46.086;6.588;2022-12-07T09:15:26;92323.94;;;0.52;46.10
67377;BME280;54261;46.086;6.588;2022-12-07T09:20:28;92314.09;;;1.84;44.04
67377;BME280;54261;46.086;6.588;2022-12-07T09:25:30;92284.16;;;-0.70;45.89
67377;BME280;54261;46.086;6.588;2022-12-07T09:30:32;92318.16;;;-1.73;49.29
67377;BME280;54261;46.086;6.588;2022-12-07T09:35:54;92299.72;;;-2.13;50.59
67377;BME280;54261;46.086;6.588;2022-12-07T09:40:56;92231.50;;;-0.60;49.37
67377;BME280;54261;46.086;6.588;2022-12-07T09:45:58;92328.13;;;1.74;46.64
67377;BME280;54261;46.086;6.588;2022-12-07T09:51:01;92328.44;;;-0.72;50.14
67377;BME280;54261;46.086;6.588;2022-12-07T09:56:04;92325.47;;;1.22;46.92
67377;BME280;54261;46.086;6.588;2022-12-07T10:06:12;92321.59;;;-2.29;52.56
67377;BME280;54261;46.086;6.588;2022-12-07T10:11:14;92318.66;;;-0.39;49.79
67377;BME280;54261;46.086;6.588;2022-12-07T10:21:26;92314.88;;;1.69;46.94
67377;BME280;54261;46.086;6.588;2022-12-07T10:26:32;92304.16;;;2.52;44.05
67377;BME280;54261;46.086;6.588;2022-12-07T10:31:39;92296.91;;;3.18;43.75
67377;BME280;54261;46.086;6.588;2022-12-07T10:36:41;92270.59;;;2.82;42.47
67377;BME280;54261;46.086;6.588;2022-12-07T10:52:45;92276.41;;;2.23;43.21
67377;BME280;54261;46.086;6.588;2022-12-07T11:14:20;92256.09;;;2.03;41.60
67377;BME280;54261;46.086;6.588;2022-12-07T11:36:13;92213.72;;;2.03;42.68
67377;BME280;54261;46.086;6.588;2022-12-07T11:41:24;92207.59;;;2.73;41.62
67377;BME280;54261;46.086;6.588;2022-12-07T11:46:45;92211.88;;;3.39;41.65
67377;BME280;54261;46.086;6.588;2022-12-07T11:51:52;92207.88;;;2.67;40.61
67377;BME280;54261;46.086;6.588;2022-12-07T11:57:03;92216.84;;;0.18;45.44
67377;BME280;54261;46.086;6.588;2022-12-07T12:07:16;92174.22;;;3.02;41.43
67377;BME280;54261;46.086;6.588;2022-12-07T12:12:53;92200.88;;;2.36;41.48
67377;BME280;54261;46.086;6.588;2022-12-07T12:18:27;92208.66;;;2.07;43.14
67377;BME280;54261;46.086;6.588;2022-12-07T12:23:48;92169.13;;;2.26;42.91
67377;BME280;54261;46.086;6.588;2022-12-07T12:28:56;92202.44;;;3.27;41.99
67377;BME280;54261;46.086;6.588;2022-12-07T12:34:04;92194.09;;;2.09;42.09
67377;BME280;54261;46.086;6.588;2022-12-07T12:54:29;92150.44;;;2.97;41.18
67377;BME280;54261;46.086;6.588;2022-12-07T13:04:39;92166.09;;;2.93;39.66
67377;BME280;54261;46.086;6.588;2022-12-07T13:09:51;92159.41;;;3.31;40.77
67377;BME280;54261;46.086;6.588;2022-12-07T13:14:56;92173.66;;;2.76;40.47
67377;BME280;54261;46.086;6.588;2022-12-07T13:20:04;92159.91;;;3.62;40.51
67377;BME280;54261;46.086;6.588;2022-12-07T13:25:21;92161.69;;;3.42;39.42
67377;BME280;54261;46.086;6.588;2022-12-07T13:30:29;92151.53;;;4.04;39.28
67377;BME280;54261;46.086;6.588;2022-12-07T13:35:37;92153.53;;;3.63;38.58
67377;BME280;54261;46.086;6.588;2022-12-07T13:40:39;92147.44;;;3.04;39.90
67377;BME280;54261;46.086;6.588;2022-12-07T13:45:41;92126.59;;;3.75;40.32
67377;BME280;54261;46.086;6.588;2022-12-07T13:50:54;92120.31;;;3.90;39.35
67377;BME280;54261;46.086;6.588;2022-12-07T13:55:58;92111.56;;;4.33;38.32
67377;BME280;54261;46.086;6.588;2022-12-07T14:01:01;92100.66;;;3.91;38.25
67377;BME280;54261;46.086;6.588;2022-12-07T14:06:14;92140.31;;;2.69;40.72
67377;BME280;54261;46.086;6.588;2022-12-07T14:11:19;92106.88;;;4.06;39.82
67377;BME280;54261;46.086;6.588;2022-12-07T14:16:35;92107.84;;;1.22;42.35
67377;BME280;54261;46.086;6.588;2022-12-07T14:21:38;92104.38;;;-0.67;47.42
67377;BME280;54261;46.086;6.588;2022-12-07T14:26:40;92117.53;;;-1.15;48.77
67377;BME280;54261;46.086;6.588;2022-12-07T14:31:42;92134.31;;;-0.89;48.86
67377;BME280;54261;46.086;6.588;2022-12-07T14:36:44;92132.34;;;2.24;44.26
67377;BME280;54261;46.086;6.588;2022-12-07T14:41:46;92097.59;;;2.71;42.35
67377;BME280;54261;46.086;6.588;2022-12-07T14:46:55;92125.44;;;2.73;41.78
67377;BME280;54261;46.086;6.588;2022-12-07T14:52:27;92127.59;;;1.60;42.02
67377;BME280;54261;46.086;6.588;2022-12-07T14:57:50;92146.63;;;-0.57;49.16
67377;BME280;54261;46.086;6.588;2022-12-07T15:02:52;92113.59;;;1.50;46.06
67377;BME280;54261;46.086;6.588;2022-12-07T15:07:55;92116.44;;;3.04;42.73
67377;BME280;54261;46.086;6.588;2022-12-07T15:12:58;92120.88;;;1.84;42.40
67377;BME280;54261;46.086;6.588;2022-12-07T15:18:20;92151.97;;;-0.89;48.40
67377;BME280;54261;46.086;6.588;2022-12-07T15:23:24;92126.50;;;-0.15;48.75
67377;BME280;54261;46.086;6.588;2022-12-07T15:28:26;92130.44;;;-0.12;50.15
67377;BME280;54261;46.086;6.588;2022-12-07T15:33:28;92135.44;;;-1.50;51.05
67377;BME280;54261;46.086;6.588;2022-12-07T15:38:30;92138.69;;;-2.65;55.66
67377;BME280;54261;46.086;6.588;2022-12-07T15:43:52;92125.59;;;0.85;48.69
67377;BME280;54261;46.086;6.588;2022-12-07T15:49:16;92118.34;;;1.58;46.94
67377;BME280;54261;46.086;6.588;2022-12-07T15:54:19;92121.31;;;2.92;44.20
67377;BME280;54261;46.086;6.588;2022-12-07T15:59:22;92119.97;;;3.48;43.36
67377;BME280;54261;46.086;6.588;2022-12-07T16:04:27;92105.75;;;2.45;42.68
67377;BME280;54261;46.086;6.588;2022-12-07T16:09:29;92097.25;;;0.13;46.99
67377;BME280;54261;46.086;6.588;2022-12-07T16:14:31;92061.13;;;0.81;46.07
67377;BME280;54261;46.086;6.588;2022-12-07T16:19:36;92115.56;;;1.94;44.93
67377;BME280;54261;46.086;6.588;2022-12-07T16:24:38;92119.19;;;3.23;42.63
67377;BME280;54261;46.086;6.588;2022-12-07T16:29:40;92071.66;;;3.27;42.71
67377;BME280;54261;46.086;6.588;2022-12-07T16:34:42;92092.41;;;2.10;42.38
67377;BME280;54261;46.086;6.588;2022-12-07T16:39:44;92112.03;;;2.09;42.70
67377;BME280;54261;46.086;6.588;2022-12-07T16:44:46;92115.91;;;3.32;41.73
67377;BME280;54261;46.086;6.588;2022-12-07T16:49:48;92085.09;;;2.77;41.32
67377;BME280;54261;46.086;6.588;2022-12-07T16:54:50;92084.28;;;2.47;41.92
67377;BME280;54261;46.086;6.588;2022-12-07T16:59:52;92108.66;;;1.22;43.78
67377;BME280;54261;46.086;6.588;2022-12-07T17:04:54;92103.53;;;2.57;42.38
67377;BME280;54261;46.086;6.588;2022-12-07T17:09:56;92113.31;;;2.97;40.54
67377;BME280;54261;46.086;6.588;2022-12-07T17:14:59;92115.50;;;2.90;40.36
67377;BME280;54261;46.086;6.588;2022-12-07T17:20:19;92074.13;;;1.58;41.33
67377;BME280;54261;46.086;6.588;2022-12-07T17:25:22;92098.66;;;3.34;40.28
67377;BME280;54261;46.086;6.588;2022-12-07T17:30:24;92083.34;;;3.26;38.83
67377;BME280;54261;46.086;6.588;2022-12-07T17:35:27;92083.72;;;3.14;39.49
67377;BME280;54261;46.086;6.588;2022-12-07T17:40:29;92107.09;;;4.09;39.73
67377;BME280;54261;46.086;6.588;2022-12-07T17:45:31;92108.06;;;3.70;39.11
67377;BME280;54261;46.086;6.588;2022-12-07T17:50:33;92103.94;;;3.83;37.92
67377;BME280;54261;46.086;6.588;2022-12-07T17:55:53;92095.56;;;1.67;41.33
67377;BME280;54261;46.086;6.588;2022-12-07T18:01:16;92051.88;;;2.90;39.99
67377;BME280;54261;46.086;6.588;2022-12-07T18:06:24;92052.41;;;3.40;39.79
67377;BME280;54261;46.086;6.588;2022-12-07T18:11:26;92084.41;;;3.74;39.29
67377;BME280;54261;46.086;6.588;2022-12-07T18:16:30;92082.31;;;3.70;39.17
67377;BME280;54261;46.086;6.588;2022-12-07T18:21:33;92085.91;;;4.04;39.10
67377;BME280;54261;46.086;6.588;2022-12-07T18:26:35;92089.00;;;3.43;39.56
67377;BME280;54261;46.086;6.588;2022-12-07T18:31:38;92074.03;;;2.99;40.00
67377;BME280;54261;46.086;6.588;2022-12-07T18:36:43;92075.91;;;2.98;39.59
67377;BME280;54261;46.086;6.588;2022-12-07T18:41:47;92070.72;;;2.08;41.50
67377;BME280;54261;46.086;6.588;2022-12-07T18:46:49;92053.91;;;2.28;41.27
67377;BME280;54261;46.086;6.588;2022-12-07T18:51:51;92066.16;;;1.74;41.86
67377;BME280;54261;46.086;6.588;2022-12-07T18:56:53;92053.31;;;2.42;40.82
67377;BME280;54261;46.086;6.588;2022-12-07T19:01:56;92073.22;;;1.89;41.46
67377;BME280;54261;46.086;6.588;2022-12-07T19:06:58;92074.84;;;2.25;41.28
67377;BME280;54261;46.086;6.588;2022-12-07T19:12:00;92065.06;;;1.80;43.00
67377;BME280;54261;46.086;6.588;2022-12-07T19:17:09;92062.47;;;2.60;41.47
67377;BME280;54261;46.086;6.588;2022-12-07T19:22:14;92069.16;;;1.46;41.78
67377;BME280;54261;46.086;6.588;2022-12-07T19:27:18;92053.66;;;1.85;42.14
67377;BME280;54261;46.086;6.588;2022-12-07T19:32:26;92012.84;;;1.46;42.74
67377;BME280;54261;46.086;6.588;2022-12-07T19:37:29;92031.47;;;1.76;42.48
67377;BME280;54261;46.086;6.588;2022-12-07T19:42:31;92056.50;;;1.43;43.57
67377;BME280;54261;46.086;6.588;2022-12-07T19:47:36;92018.63;;;1.53;42.30
67377;BME280;54261;46.086;6.588;2022-12-07T19:52:38;91984.63;;;2.16;41.86
67377;BME280;54261;46.086;6.588;2022-12-07T19:57:40;92058.78;;;2.56;41.43
67377;BME280;54261;46.086;6.588;2022-12-07T20:02:42;91990.16;;;1.80;41.48
67377;BME280;54261;46.086;6.588;2022-12-07T20:07:44;92032.16;;;1.36;42.25
67377;BME280;54261;46.086;6.588;2022-12-07T20:12:46;92042.50;;;1.88;41.24
67377;BME280;54261;46.086;6.588;2022-12-07T20:18:06;92016.41;;;1.76;41.72
67377;BME280;54261;46.086;6.588;2022-12-07T20:23:08;92015.88;;;1.13;42.36
67377;BME280;54261;46.086;6.588;2022-12-07T20:28:10;92020.31;;;1.84;41.51
67377;BME280;54261;46.086;6.588;2022-12-07T20:33:13;92017.16;;;2.56;41.00
67377;BME280;54261;46.086;6.588;2022-12-07T20:38:15;92028.34;;;2.53;40.29
67377;BME280;54261;46.086;6.588;2022-12-07T20:43:17;92020.84;;;2.90;40.48
67377;BME280;54261;46.086;6.588;2022-12-07T20:48:19;92020.00;;;2.65;40.66
67377;BME280;54261;46.086;6.588;2022-12-07T20:53:21;91999.03;;;3.23;40.24
67377;BME280;54261;46.086;6.588;2022-12-07T20:58:23;92006.00;;;3.13;39.57
67377;BME280;54261;46.086;6.588;2022-12-07T21:03:29;92019.41;;;2.73;40.56
67377;BME280;54261;46.086;6.588;2022-12-07T21:08:31;92012.63;;;3.16;40.09
67377;BME280;54261;46.086;6.588;2022-12-07T21:13:33;91988.78;;;2.62;40.18
67377;BME280;54261;46.086;6.588;2022-12-07T21:18:36;91998.00;;;0.74;42.44
67377;BME280;54261;46.086;6.588;2022-12-07T21:23:39;91972.91;;;0.45;42.63
67377;BME280;54261;46.086;6.588;2022-12-07T21:28:41;91995.63;;;1.94;40.44
67377;BME280;54261;46.086;6.588;2022-12-07T21:33:45;91994.03;;;2.33;38.74
67377;BME280;54261;46.086;6.588;2022-12-07T21:38:48;91997.34;;;1.74;40.34
67377;BME280;54261;46.086;6.588;2022-12-07T21:43:50;91999.88;;;0.32;43.36
67377;BME280;54261;46.086;6.588;2022-12-07T21:48:54;91958.19;;;1.71;40.39
67377;BME280;54261;46.086;6.588;2022-12-07T21:53:58;91992.28;;;2.82;39.38
67377;BME280;54261;46.086;6.588;2022-12-07T21:59:09;91995.41;;;2.89;39.77
67377;BME280;54261;46.086;6.588;2022-12-07T22:04:19;91999.44;;;2.17;39.84
67377;BME280;54261;46.086;6.588;2022-12-07T22:09:22;91989.09;;;3.09;37.65
67377;BME280;54261;46.086;6.588;2022-12-07T22:14:24;91993.88;;;3.32;37.40
67377;BME280;54261;46.086;6.588;2022-12-07T22:19:44;91995.06;;;2.96;36.82
67377;BME280;54261;46.086;6.588;2022-12-07T22:24:46;91974.47;;;1.49;39.12
67377;BME280;54261;46.086;6.588;2022-12-07T22:29:52;91992.41;;;2.71;38.49
67377;BME280;54261;46.086;6.588;2022-12-07T22:34:54;91973.03;;;2.47;38.74
67377;BME280;54261;46.086;6.588;2022-12-07T22:39:56;92000.53;;;3.05;38.37
67377;BME280;54261;46.086;6.588;2022-12-07T22:44:58;91995.25;;;2.75;38.48
67377;BME280;54261;46.086;6.588;2022-12-07T22:50:00;91997.94;;;2.40;38.03
67377;BME280;54261;46.086;6.588;2022-12-07T22:55:02;91990.72;;;2.51;38.78
67377;BME280;54261;46.086;6.588;2022-12-07T23:00:05;91993.28;;;0.50;41.06
67377;BME280;54261;46.086;6.588;2022-12-07T23:05:10;91995.25;;;1.10;40.36
67377;BME280;54261;46.086;6.588;2022-12-07T23:10:12;91992.63;;;2.46;39.17
67377;BME280;54261;46.086;6.588;2022-12-07T23:15:15;91968.56;;;2.42;38.11
67377;BME280;54261;46.086;6.588;2022-12-07T23:20:17;91954.47;;;2.47;38.26
67377;BME280;54261;46.086;6.588;2022-12-07T23:25:19;91981.41;;;2.54;38.57
67377;BME280;54261;46.086;6.588;2022-12-07T23:30:21;91986.38;;;2.31;38.42
67377;BME280;54261;46.086;6.588;2022-12-07T23:35:23;91980.00;;;1.52;38.70
67377;BME280;54261;46.086;6.588;2022-12-07T23:40:25;91961.59;;;1.77;39.67
67377;BME280;54261;46.086;6.588;2022-12-07T23:45:27;91976.53;;;0.91;42.22
67377;BME280;54261;46.086;6.588;2022-12-07T23:50:29;91980.44;;;1.70;40.73
67377;BME280;54261;46.086;6.588;2022-12-07T23:55:31;91962.94;;;2.14;40.15
